Time;durP1;ratioP1;P1;durP2;ratioP2;P2;SDS_P1;SDS_P2;PMS_P1;PMS_P2;Temp;Humidity;BMP_temperature;BMP_pressure;BME280_temperature;BME280_humidity;BME280_pressure;Samples;Min_cycle;Max_cycle;Signal;HPM_P1;HPM_P2
2022/08/05 00:02:02;;;;;;;5.47;3.62;;;;;;;23.98;48.74;99746.47;4354300;32;34999;-79
2022/08/05 00:04:56;;;;;;;6.07;3.30;;;;;;;24.00;48.97;99744.06;4347011;32;34533;-79
2022/08/05 00:07:41;;;;;;;5.90;3.70;;;;;;;23.49;49.09;99747.97;4356630;32;34939;-80
2022/08/05 00:10:46;;;;;;;5.75;3.90;;;;;;;23.59;48.74;99747.16;4355136;32;35288;-80
2022/08/05 00:13:33;;;;;;;5.15;3.65;;;;;;;24.04;49.05;99739.25;4355769;32;35042;-79
2022/08/05 00:16:26;;;;;;;5.28;3.40;;;;;;;23.50;50.01;99755.16;4355104;32;34603;-79
2022/08/05 00:19:21;;;;;;;4.82;3.28;;;;;;;23.62;50.02;99745.56;4358482;32;34940;-79
2022/08/05 00:22:08;;;;;;;5.37;3.53;;;;;;;23.58;50.80;99743.59;4357784;32;35303;-79
2022/08/05 00:24:56;;;;;;;8.10;3.70;;;;;;;23.50;50.62;99743.97;4355214;32;34149;-79
2022/08/05 00:27:43;;;;;;;5.18;3.17;;;;;;;23.72;49.95;99742.84;4350032;32;180328;-79
2022/08/05 00:30:29;;;;;;;5.37;3.30;;;;;;;23.24;50.55;99740.28;4346272;32;35749;-79
2022/08/05 00:33:17;;;;;;;6.93;3.17;;;;;;;23.71;49.47;99744.03;4361875;32;34722;-79
2022/08/05 00:36:23;;;;;;;7.12;3.10;;;;;;;22.88;51.40;99740.13;4356681;32;35122;-79
2022/08/05 00:39:29;;;;;;;4.80;2.90;;;;;;;23.33;50.83;99746.31;4335243;32;35190;-79
2022/08/05 00:42:36;;;;;;;6.78;3.05;;;;;;;22.79;51.31;99739.66;4369089;32;35906;-79
2022/08/05 00:45:22;;;;;;;3.78;2.65;;;;;;;23.28;50.14;99743.09;4351131;32;34522;-80
2022/08/05 00:48:24;;;;;;;4.72;2.70;;;;;;;22.85;50.46;99743.72;4357576;32;33297;-79
2022/08/05 00:51:17;;;;;;;5.85;3.12;;;;;;;23.10;49.12;99734.66;4356792;32;34685;-79
2022/08/05 00:54:23;;;;;;;4.45;2.70;;;;;;;23.39;48.63;99743.13;4357288;32;34921;-79
2022/08/05 00:57:15;;;;;;;4.57;2.47;;;;;;;23.55;47.86;99738.00;4356443;32;34160;-79
2022/08/05 01:00:06;;;;;;;7.00;2.93;;;;;;;23.31;48.45;99736.75;4356382;32;34121;-79
2022/08/05 01:02:58;;;;;;;5.05;2.50;;;;;;;23.46;48.18;99729.97;4357128;32;34669;-79
2022/08/05 01:05:45;;;;;;;5.50;3.20;;;;;;;22.83;49.75;99729.34;4346367;32;34548;-79
2022/08/05 01:08:32;;;;;;;5.25;2.90;;;;;;;23.32;48.63;99725.16;4357470;32;34685;-79
2022/08/05 01:11:32;;;;;;;5.97;3.05;;;;;;;23.20;49.22;99725.53;4366228;32;34090;-79
2022/08/05 01:14:32;;;;;;;7.75;2.83;;;;;;;22.77;49.91;99719.72;4347847;32;34642;-79
2022/08/05 01:17:40;;;;;;;4.62;2.65;;;;;;;22.40;50.70;99729.09;4358469;32;34835;-79
2022/08/05 01:20:39;;;;;;;4.65;2.67;;;;;;;23.41;47.70;99730.38;4347053;32;33387;-79
2022/08/05 01:23:40;;;;;;;5.65;2.83;;;;;;;22.56;51.07;99723.19;4358882;32;34869;-79
2022/08/05 01:26:49;;;;;;;3.87;2.67;;;;;;;22.67;49.91;99726.06;4356925;32;35613;-79
2022/08/05 01:29:39;;;;;;;7.10;2.50;;;;;;;23.15;48.39;99725.09;4358965;32;35579;-79
2022/08/05 01:32:31;;;;;;;3.58;2.45;;;;;;;22.22;50.69;99725.38;4363890;32;34107;-79
2022/08/05 01:35:22;;;;;;;3.92;2.50;;;;;;;23.21;48.45;99731.91;4360259;32;34203;-79
2022/08/05 01:38:29;;;;;;;3.75;2.60;;;;;;;22.60;50.28;99731.63;4357230;32;35695;-79
2022/08/05 01:41:18;;;;;;;3.58;2.60;;;;;;;22.07;52.08;99726.44;4358854;32;34984;-79
2022/08/05 01:44:08;;;;;;;4.67;3.03;;;;;;;23.01;49.75;99734.22;4354085;32;34791;-79
2022/08/05 01:46:57;;;;;;;5.00;3.00;;;;;;;22.54;51.27;99735.94;4364772;32;33843;-80
2022/08/05 01:49:43;;;;;;;4.35;2.70;;;;;;;22.12;51.93;99737.22;4366001;32;34249;-79
2022/08/05 01:52:47;;;;;;;5.85;2.65;;;;;;;22.49;50.78;99739.91;4348471;32;35043;-79
2022/08/05 01:55:36;;;;;;;3.67;2.78;;;;;;;22.99;49.98;99745.00;4357636;32;34246;-79
2022/08/05 01:58:23;;;;;;;5.30;2.95;;;;;;;22.54;51.39;99739.56;4362199;32;35053;-79
2022/08/05 02:01:31;;;;;;;4.50;2.65;;;;;;;21.93;52.30;99735.47;4362330;32;35077;-79
2022/08/05 02:04:27;;;;;;;3.87;2.55;;;;;;;22.36;51.13;99730.25;4346619;32;34455;-78
2022/08/05 02:07:14;;;;;;;4.32;3.00;;;;;;;23.07;48.65;99730.66;4347262;32;33878;-78
2022/08/05 02:10:09;;;;;;;3.60;2.60;;;;;;;23.15;48.93;99728.69;4356545;32;35130;-79
2022/08/05 02:13:09;;;;;;;4.37;2.70;;;;;;;22.77;49.63;99732.88;4346900;32;33796;-79
2022/08/05 02:16:05;;;;;;;6.72;2.97;;;;;;;22.48;50.68;99738.28;4364502;32;34929;-79
2022/08/05 02:19:16;;;;;;;4.53;2.80;;;;;;;22.86;49.36;99728.56;4357302;32;34371;-79
2022/08/05 02:22:03;;;;;;;5.32;2.50;;;;;;;22.45;51.69;99725.94;4354230;32;34118;-79
2022/08/05 02:25:01;;;;;;;6.05;2.80;;;;;;;22.74;50.16;99730.88;4356986;32;35356;-79
2022/08/05 02:27:48;;;;;;;5.28;3.10;;;;;;;22.85;49.93;99729.75;4347345;32;35026;-78
2022/08/05 02:30:49;;;;;;;6.80;2.80;;;;;;;22.55;51.08;99726.37;4359963;32;34536;-79
2022/08/05 02:33:43;;;;;;;4.70;2.55;;;;;;;22.63;50.81;99725.25;4356326;32;33830;-79
2022/08/05 02:36:35;;;;;;;3.55;2.60;;;;;;;22.93;49.62;99726.97;4360755;32;35574;-79
2022/08/05 02:39:23;;;;;;;4.00;2.80;;;;;;;22.79;50.65;99731.28;4357160;32;34626;-79
2022/08/05 02:42:12;;;;;;;4.57;2.95;;;;;;;22.44;52.10;99729.09;4352422;32;34761;-79
2022/08/05 02:45:13;;;;;;;3.40;2.30;;;;;;;22.05;53.33;99726.78;4357448;32;35253;-79
2022/08/05 02:48:01;;;;;;;8.75;2.92;;;;;;;22.34;51.00;99724.25;4356661;32;34495;-79
2022/08/05 02:51:01;;;;;;;3.87;2.55;;;;;;;22.26;52.57;99729.00;4347079;32;34801;-79
2022/08/05 02:53:48;;;;;;;6.00;2.92;;;;;;;22.11;52.73;99721.66;4357234;32;36138;-79
2022/08/05 02:56:42;;;;;;;4.95;3.03;;;;;;;22.40;51.78;99731.88;4357947;32;33710;-79
2022/08/05 02:59:31;;;;;;;3.72;2.75;;;;;;;22.34;50.60;99721.47;4355793;32;35610;-79
2022/08/05 03:02:36;;;;;;;4.45;2.80;;;;;;;22.27;51.28;99721.41;4348309;32;36100;-79
2022/08/05 03:05:22;;;;;;;3.95;2.60;;;;;;;22.07;51.90;99727.22;4356339;32;34604;-79
2022/08/05 03:08:29;;;;;;;5.47;3.00;;;;;;;21.73;53.18;99712.59;4356629;32;33829;-79
2022/08/05 03:11:17;;;;;;;4.32;2.80;;;;;;;21.93;53.36;99715.94;4358108;32;34781;-79
2022/08/05 03:14:23;;;;;;;4.60;2.45;;;;;;;22.18;52.73;99711.37;4357516;32;34984;-79
2022/08/05 03:17:10;;;;;;;3.62;2.60;;;;;;;21.63;54.51;99704.91;4358082;32;35123;-78
2022/08/05 03:19:58;;;;;;;3.80;2.80;;;;;;;22.07;53.55;99710.47;4354174;32;34180;-79
2022/08/05 03:22:45;;;;;;;5.82;3.45;;;;;;;22.00;54.18;99705.66;4334829;32;34177;-79
2022/08/05 03:25:37;;;;;;;5.28;3.03;;;;;;;21.77;55.16;99710.63;4361996;32;34333;-79
2022/08/05 03:28:43;;;;;;;5.78;3.35;;;;;;;21.79;55.97;99702.69;4354569;32;35502;-79
2022/08/05 03:31:30;;;;;;;6.03;3.03;;;;;;;21.50;56.93;99708.00;4357541;32;33865;-79
2022/08/05 03:34:37;;;;;;;6.85;3.28;;;;;;;21.58;56.91;99705.28;4348702;32;33426;-79
2022/08/05 03:37:24;;;;;;;6.55;3.67;;;;;;;21.78;56.43;99703.87;4354597;32;34470;-79
2022/08/05 03:40:11;;;;;;;6.22;3.25;;;;;;;22.02;55.89;99702.47;4357594;32;34342;-78
2022/08/05 03:43:00;;;;;;;4.68;3.12;;;;;;;22.17;55.43;99698.63;4353580;32;34461;-78
2022/08/05 03:46:06;;;;;;;6.30;3.12;;;;;;;22.17;55.34;99703.37;4356327;32;35345;-79
2022/08/05 03:48:53;;;;;;;7.10;3.35;;;;;;;21.94;55.70;99704.41;4356644;32;35934;-78
2022/08/05 03:52:08;;;;;;;7.40;3.40;;;;;;;22.06;55.30;99702.47;4357707;32;34235;-79
2022/08/05 03:55:23;;;;;;;6.22;3.30;;;;;;;21.08;59.18;99708.28;4356044;32;34187;-79
2022/08/05 03:58:32;;;;;;;6.32;3.45;;;;;;;21.55;58.63;99701.28;4358910;32;34341;-79
2022/08/05 04:01:20;;;;;;;7.62;3.58;;;;;;;21.27;59.46;99710.91;4346857;32;35263;-79
2022/08/05 04:04:07;;;;;;;5.80;3.80;;;;;;;21.58;58.51;99708.06;4354685;32;34595;-79
2022/08/05 04:06:56;;;;;;;11.05;3.92;;;;;;;21.48;58.91;99706.78;4346962;32;35241;-79
2022/08/05 04:09:43;;;;;;;8.35;3.85;;;;;;;21.71;58.38;99704.59;4355899;32;34645;-79
2022/08/05 04:12:38;;;;;;;7.18;3.70;;;;;;;21.71;58.40;99709.38;4345793;32;34035;-79
2022/08/05 04:15:24;;;;;;;6.78;3.03;;;;;;;21.87;58.43;99707.12;4359291;32;34732;-79
2022/08/05 04:18:13;;;;;;;9.10;4.05;;;;;;;21.58;59.32;99711.66;4357977;32;33925;-79
2022/08/05 04:21:07;;;;;;;7.75;3.25;;;;;;;21.96;58.45;99701.22;4356385;32;35565;-79
2022/08/05 04:23:59;;;;;;;5.43;3.55;;;;;;;21.84;58.70;99701.53;4365404;32;35933;-79
2022/08/05 04:26:54;;;;;;;5.18;3.28;;;;;;;21.99;57.88;99704.03;4356212;32;34700;-79
2022/08/05 04:29:43;;;;;;;4.57;3.10;;;;;;;21.92;58.07;99700.41;4356581;32;34054;-79
2022/08/05 04:32:30;;;;;;;4.95;3.50;;;;;;;21.99;57.44;99698.47;4345661;32;34687;-79
2022/08/05 04:35:20;;;;;;;5.82;3.33;;;;;;;22.30;57.72;99709.47;4348681;32;35934;-79
2022/08/05 04:38:08;;;;;;;5.47;3.70;;;;;;;22.08;58.37;99705.69;4356391;32;34817;-73
2022/08/05 04:41:00;;;;;;;;;;;;;;;22.39;57.08;99699.56;4357027;32;34990;-73
2022/08/05 04:43:48;;;;;;;5.85;3.35;;;;;;;21.95;59.04;99700.44;4356051;32;34924;-73
2022/08/05 04:46:38;;;;;;;7.37;3.70;;;;;;;21.14;61.48;99705.97;4355339;32;35974;-73
2022/08/05 04:49:25;;;;;;;8.40;3.97;;;;;;;21.80;60.16;99707.09;4366479;32;34658;-74
2022/08/05 04:52:31;;;;;;;6.35;3.60;;;;;;;21.89;59.26;99701.97;4348024;32;34102;-73
2022/08/05 04:55:20;;;;;;;4.40;3.28;;;;;;;21.82;58.85;99699.13;4354036;32;34550;-73
2022/08/05 04:58:26;;;;;;;5.57;3.50;;;;;;;22.48;57.21;99701.19;4355802;32;34642;-74
2022/08/05 05:01:12;;;;;;;6.12;4.12;;;;;;;22.46;58.88;99704.41;4353622;32;34663;-73
2022/08/05 05:03:58;;;;;;;8.63;3.50;;;;;;;23.11;54.10;99711.91;4354744;32;35122;-75
2022/08/05 05:06:45;;;;;;;5.85;3.87;;;;;;;23.11;53.80;99699.94;4356608;32;34152;-75
2022/08/05 05:09:43;;;;;;;6.85;3.60;;;;;;;23.03;54.15;99698.31;4341506;32;35480;-75
2022/08/05 05:12:29;;;;;;;6.50;3.53;;;;;;;23.49;52.86;99695.63;4351833;32;34828;-75
2022/08/05 05:15:16;;;;;;;5.68;3.50;;;;;;;23.60;52.19;99694.84;4357039;32;33724;-75
2022/08/05 05:18:22;;;;;;;7.12;3.90;;;;;;;23.60;52.36;99692.84;4355452;32;34673;-75
2022/08/05 05:21:19;;;;;;;7.37;3.60;;;;;;;23.62;53.34;99696.03;4358704;32;34945;-75
2022/08/05 05:24:05;;;;;;;6.75;3.70;;;;;;;23.91;51.30;99708.09;4356226;32;34408;-75
2022/08/05 05:26:54;;;;;;;9.48;3.70;;;;;;;24.28;48.62;99703.25;4356815;32;35091;-75
2022/08/05 05:29:42;;;;;;;6.57;3.75;;;;;;;24.20;49.42;99697.66;4356624;32;35578;-74
2022/08/05 05:32:48;;;;;;;9.43;3.50;;;;;;;24.42;48.32;99697.66;4352991;32;36301;-74
2022/08/05 05:35:34;;;;;;;8.02;3.83;;;;;;;24.63;48.31;99699.59;4349674;32;34862;-78
2022/08/05 05:38:27;;;;;;;12.15;3.80;;;;;;;24.77;47.61;99696.75;4346303;32;35312;-75
2022/08/05 05:41:13;;;;;;;8.23;3.58;;;;;;;24.94;46.20;99699.91;4354860;32;34707;-76
2022/08/05 05:44:03;;;;;;;8.93;3.92;;;;;;;24.83;47.18;99700.72;4359856;32;36030;-76
2022/08/05 05:47:10;;;;;;;7.82;3.65;;;;;;;24.98;47.25;99693.06;4355276;32;35424;-77
2022/08/05 05:50:08;;;;;;;9.32;4.03;;;;;;;25.21;45.68;99698.16;4356935;32;34122;-76
2022/08/05 05:53:01;;;;;;;5.30;3.40;;;;;;;25.34;45.95;99695.72;4361541;32;35552;-77
2022/08/05 05:56:08;;;;;;;8.13;3.65;;;;;;;25.27;46.06;99695.75;4355333;32;35228;-75
2022/08/05 05:58:54;;;;;;;6.40;3.53;;;;;;;25.20;45.73;99695.78;4363859;32;34680;-76
2022/08/05 06:01:41;;;;;;;7.30;4.07;;;;;;;25.71;44.13;99688.66;4364174;32;34656;-76
2022/08/05 06:04:43;;;;;;;8.77;4.00;;;;;;;25.79;43.46;99681.78;4349616;32;34575;-76
2022/08/05 06:07:34;;;;;;;;;;;;;;;25.73;43.48;99691.84;4357339;32;35003;-79
2022/08/05 06:10:27;;;;;;;7.28;3.90;;;;;;;25.64;44.60;99685.88;4346409;32;33669;-77
2022/08/05 06:13:19;;;;;;;6.22;3.58;;;;;;;26.16;43.12;99694.31;4358137;32;33924;-77
2022/08/05 06:16:08;;;;;;;5.35;3.90;;;;;;;26.33;42.25;99687.72;4356710;32;36061;-76
2022/08/05 06:19:14;;;;;;;10.38;4.22;;;;;;;26.54;41.27;99697.16;4357515;32;34498;-78
2022/08/05 06:22:29;;;;;;;8.13;4.65;;;;;;;26.40;43.03;99693.25;4358379;32;36031;-76
2022/08/05 06:25:18;;;;;;;10.93;4.40;;;;;;;26.69;39.71;99696.56;4348102;32;32884;-74
2022/08/05 06:28:25;;;;;;;7.70;3.83;;;;;;;26.76;40.09;99692.09;4354939;32;34716;-78
2022/08/05 06:31:13;;;;;;;8.07;4.05;;;;;;;27.13;40.44;99699.66;4353380;32;34882;-77
2022/08/05 06:34:07;;;;;;;7.22;3.53;;;;;;;27.02;39.00;99684.94;4355170;32;34908;-76
2022/08/05 06:36:53;;;;;;;12.43;4.85;;;;;;;27.04;39.21;99690.94;4354757;32;34265;-76
2022/08/05 06:39:43;;;;;;;10.88;4.00;;;;;;;27.49;36.61;99687.91;4341561;32;35543;-76
2022/08/05 06:42:30;;;;;;;6.70;3.58;;;;;;;27.40;37.00;99682.03;4360883;32;34831;-75
2022/08/05 06:45:16;;;;;;;7.95;3.58;;;;;;;27.87;36.43;99687.75;4356269;32;35542;-76
2022/08/05 06:48:22;;;;;;;6.60;3.60;;;;;;;27.86;37.03;99688.97;4357649;32;34196;-77
2022/08/05 06:51:29;;;;;;;8.32;3.70;;;;;;;27.71;36.78;99683.53;4356887;32;35409;-77
2022/08/05 06:54:16;;;;;;;9.90;4.20;;;;;;;28.11;36.00;99686.50;4345829;32;34979;-77
2022/08/05 06:57:04;;;;;;;11.45;3.95;;;;;;;27.71;36.64;99691.19;4357572;32;34324;-78
2022/08/05 07:00:10;;;;;;;8.25;3.80;;;;;;;28.32;35.25;99685.34;4354920;32;35118;-78
2022/08/05 07:02:57;;;;;;;9.80;4.12;;;;;;;28.57;36.28;99689.72;4353921;32;35561;-79
2022/08/05 07:05:44;;;;;;;9.32;3.80;;;;;;;28.50;34.02;99687.84;4347589;32;34858;-76
2022/08/05 07:08:31;;;;;;;6.50;3.83;;;;;;;28.61;33.32;99688.44;4362689;32;34663;-76
2022/08/05 07:11:18;;;;;;;7.12;3.55;;;;;;;29.14;34.57;99705.50;4357949;32;34066;-76
2022/08/05 07:17:15;;;;;;;6.68;3.40;;;;;;;28.44;33.58;99695.22;4343580;32;34233;-76
2022/08/05 07:20:22;;;;;;;6.40;3.40;;;;;;;28.89;32.06;99698.34;4357077;32;36107;-76
2022/08/05 07:23:18;;;;;;;9.68;3.50;;;;;;;29.07;33.42;99700.00;4347922;32;34103;-77
2022/08/05 07:26:14;;;;;;;5.97;3.28;;;;;;;29.19;31.82;99698.53;4356242;32;33466;-79
2022/08/05 07:29:07;;;;;;;5.75;3.10;;;;;;;29.69;33.70;99691.78;4357761;32;35022;-76
2022/08/05 07:31:55;;;;;;;5.50;3.25;;;;;;;29.33;32.38;99692.59;4345119;32;35722;-77
2022/08/05 07:34:41;;;;;;;6.45;3.60;;;;;;;29.66;31.41;99690.63;4355176;32;35233;-77
2022/08/05 07:37:27;;;;;;;7.57;3.80;;;;;;;29.63;33.07;99688.69;4357029;32;34769;-78
2022/08/05 07:40:25;;;;;;;6.22;3.22;;;;;;;29.52;31.74;99688.91;4355049;32;33822;-77
2022/08/05 07:43:18;;;;;;;6.10;3.33;;;;;;;29.87;32.08;99680.03;4361657;32;34258;-78
2022/08/05 07:46:06;;;;;;;5.10;3.30;;;;;;;30.07;31.08;99682.75;4356954;32;34143;-78
2022/08/05 07:49:12;;;;;;;9.43;3.33;;;;;;;30.20;30.73;99681.59;4356151;32;35150;-78
2022/08/05 07:51:59;;;;;;;9.07;3.10;;;;;;;30.01;31.83;99685.31;4354519;32;34722;-78
2022/08/05 07:54:45;;;;;;;9.35;3.45;;;;;;;30.35;31.02;99673.56;4355888;32;36070;-78
2022/08/05 07:57:35;;;;;;;6.90;3.60;;;;;;;30.60;31.71;99675.69;4357732;32;32777;-77
2022/08/05 08:00:42;;;;;;;6.75;3.40;;;;;;;30.98;29.91;99680.69;4353228;32;34096;-77
2022/08/05 08:03:30;;;;;;;10.52;4.18;;;;;;;30.67;30.39;99678.31;4356616;32;36069;-77
2022/08/05 08:06:31;;;;;;;6.15;3.70;;;;;;;30.57;29.42;99684.25;4357729;32;34538;-79
2022/08/05 08:09:18;;;;;;;7.93;3.75;;;;;;;30.32;30.43;99682.94;4355988;32;33841;-79
2022/08/05 08:12:06;;;;;;;7.07;3.50;;;;;;;30.85;30.62;99685.50;4355304;32;34491;-79
2022/08/05 08:15:12;;;;;;;6.60;3.60;;;;;;;31.20;30.63;99683.66;4355194;32;34950;-77
2022/08/05 08:18:00;;;;;;;8.07;3.70;;;;;;;31.65;29.13;99679.84;4353467;32;34670;-77
2022/08/05 08:20:52;;;;;;;6.60;3.60;;;;;;;31.67;30.65;99677.31;4353997;32;34178;-78
2022/08/05 08:23:48;;;;;;;19.75;5.18;;;;;;;31.41;28.54;99675.75;4356753;32;34428;-78
2022/08/05 08:26:49;;;;;;;;;;;;;;;31.66;29.18;99681.41;4354209;32;34718;-77
2022/08/05 08:29:37;;;;;;;4.40;3.45;;;;;;;32.02;27.89;99677.44;4343936;32;34672;-73
2022/08/05 08:32:44;;;;;;;5.80;3.50;;;;;;;32.01;28.07;99673.00;4349907;32;35211;-77
2022/08/05 08:35:30;;;;;;;8.82;3.50;;;;;;;32.07;28.03;99671.16;4350754;32;34091;-77
2022/08/05 08:38:26;;;;;;;7.87;3.70;;;;;;;32.62;28.20;99674.50;4353111;32;36499;-78
2022/08/05 08:41:24;;;;;;;5.28;3.62;;;;;;;32.07;26.67;99674.00;4357321;32;35432;-74
2022/08/05 08:44:13;;;;;;;6.30;3.40;;;;;;;32.43;27.10;99669.91;4355541;32;34419;-75
2022/08/05 08:47:22;;;;;;;31.12;8.00;;;;;;;32.65;26.91;99665.06;4349391;32;33236;-75
2022/08/05 08:50:29;;;;;;;30.52;6.25;;;;;;;32.65;26.67;99665.06;4359022;32;34640;-75
2022/08/05 08:53:36;;;;;;;7.30;3.85;;;;;;;33.10;27.11;99675.16;4355733;32;35080;-75
2022/08/05 08:56:31;;;;;;;6.53;3.92;;;;;;;32.93;26.95;99676.59;4351253;32;34073;-76
2022/08/05 08:59:19;;;;;;;9.73;3.83;;;;;;;33.01;25.84;99666.56;4356252;32;36046;-77
2022/08/05 09:02:06;;;;;;;7.65;3.78;;;;;;;33.13;26.38;99662.88;4355450;32;35890;-77
2022/08/05 09:04:53;;;;;;;6.75;3.37;;;;;;;33.52;25.82;99662.56;4348803;32;34608;-76
2022/08/05 09:08:00;;;;;;;8.00;4.30;;;;;;;33.77;25.38;99667.22;4353460;32;34241;-77
2022/08/05 09:10:46;;;;;;;10.57;4.12;;;;;;;33.77;25.45;99664.38;4357241;32;35252;-76
2022/08/05 09:13:33;;;;;;;7.12;3.70;;;;;;;33.29;25.85;99661.03;4352042;32;35101;-76
2022/08/05 09:16:40;;;;;;;5.20;3.55;;;;;;;33.63;24.26;99657.25;4358695;32;34528;-75
2022/08/05 09:19:35;;;;;;;8.63;3.50;;;;;;;34.14;25.42;99661.62;4355965;32;34228;-74
2022/08/05 09:23:19;;;;;;;17.12;3.92;;;;;;;33.41;25.91;99654.44;4355207;32;35137;-77
2022/08/05 09:26:09;;;;;;;8.57;3.47;;;;;;;33.84;25.23;99649.84;4294949;33;35998;-75
2022/08/05 09:29:03;;;;;;;9.82;3.75;;;;;;;34.40;24.48;99645.81;4294605;33;34310;-75
2022/08/05 09:32:01;;;;;;;26.40;4.68;;;;;;;34.40;23.75;99634.44;4354648;32;35330;-75
2022/08/05 09:35:12;;;;;;;74.50;10.95;;;;;;;34.65;23.61;99647.56;4360495;32;34579;-75
2022/08/05 09:38:12;;;;;;;8.70;3.30;;;;;;;34.57;23.23;99637.00;4354937;32;36063;-74
2022/08/05 09:41:11;;;;;;;9.85;3.47;;;;;;;34.46;23.22;99635.37;4357220;32;35427;-73
2022/08/05 09:44:02;;;;;;;5.25;3.58;;;;;;;35.35;23.01;99632.53;4357248;32;34007;-74
2022/08/05 09:46:49;;;;;;;9.65;3.60;;;;;;;35.30;22.63;99621.78;4357669;32;34377;-74
2022/08/05 09:49:49;;;;;;;6.32;3.62;;;;;;;35.65;22.33;99630.63;4358296;32;35087;-74
2022/08/05 09:52:56;;;;;;;7.20;3.50;;;;;;;35.37;22.63;99618.56;4352044;32;35378;-75
2022/08/05 09:55:43;;;;;;;7.43;3.37;;;;;;;35.25;24.23;99623.22;4356805;32;35711;-76
2022/08/05 09:59:01;;;;;;;7.85;3.45;;;;;;;35.32;23.55;99617.19;4356570;32;34811;-75
2022/08/05 10:01:51;;;;;;;6.32;3.30;;;;;;;35.75;23.10;99608.56;4354713;32;34969;-77
2022/08/05 10:04:44;;;;;;;9.07;3.60;;;;;;;36.13;22.43;99610.69;4354120;32;35604;-76
2022/08/05 10:08:03;;;;;;;13.10;4.03;;;;;;;35.74;21.35;99607.00;4355512;32;33841;-77
2022/08/05 10:11:14;;;;;;;6.62;3.55;;;;;;;35.26;22.91;99609.75;4342541;32;34192;-77
2022/08/05 10:14:19;;;;;;;10.40;3.58;;;;;;;33.78;23.28;99606.28;4359132;32;34475;-77
2022/08/05 10:17:13;;;;;;;10.07;3.83;;;;;;;35.22;25.65;99592.06;4358584;32;34404;-77
2022/08/05 10:20:19;;;;;;;6.12;3.80;;;;;;;35.89;22.69;99602.16;4362073;32;33796;-77
2022/08/05 10:23:06;;;;;;;10.23;3.67;;;;;;;35.97;21.01;99589.06;4362454;32;35262;-76
2022/08/05 10:26:13;;;;;;;51.85;7.28;;;;;;;36.06;20.74;99587.44;4355845;32;35031;-77
2022/08/05 10:29:01;;;;;;;6.97;3.15;;;;;;;35.94;20.91;99580.72;4357612;32;34879;-76
2022/08/05 10:31:48;;;;;;;6.07;3.22;;;;;;;37.01;21.02;99574.94;4347760;32;35344;-77
2022/08/05 10:34:57;;;;;;;6.95;3.50;;;;;;;36.82;20.81;99580.03;4359505;32;33176;-76
2022/08/05 10:37:46;;;;;;;6.82;3.97;;;;;;;36.97;20.81;99577.16;4372832;32;34963;-75
2022/08/05 10:40:53;;;;;;;8.77;3.85;;;;;;;37.12;20.69;99571.47;4354801;32;35524;-76
2022/08/05 10:44:01;;;;;;;6.40;3.65;;;;;;;37.34;20.88;99574.66;4353445;32;34235;-76
2022/08/05 10:46:53;;;;;;;4.75;3.30;;;;;;;37.67;20.30;99579.28;4347516;32;35122;-76
2022/08/05 10:50:00;;;;;;;;;;;;;;;37.77;19.74;99577.06;4351315;32;35121;-76
2022/08/05 10:53:45;;;;;;;4.45;3.42;;;;;;;37.93;18.71;99570.75;4355759;32;35735;-78
2022/08/05 10:56:54;;;;;;;4.30;3.67;;;;;;;37.70;19.99;99568.91;4358414;32;33839;-74
2022/08/05 10:59:42;;;;;;;4.60;3.60;;;;;;;37.76;18.64;99561.19;4358819;32;34705;-79
2022/08/05 11:02:57;;;;;;;5.57;3.72;;;;;;;37.59;19.70;99561.75;4360227;32;34914;-76
2022/08/05 11:06:10;;;;;;;7.50;3.60;;;;;;;37.91;19.28;99563.97;4357113;32;36126;-76
2022/08/05 11:09:22;;;;;;;5.07;3.35;;;;;;;38.04;19.29;99564.41;4354443;32;34218;-76
2022/08/05 11:12:33;;;;;;;4.95;3.70;;;;;;;37.97;18.43;99554.22;4353616;32;34309;-78
2022/08/05 11:15:33;;;;;;;4.45;3.50;;;;;;;36.81;19.11;99543.44;4356888;32;35075;-76
2022/08/05 11:18:39;;;;;;;4.95;3.53;;;;;;;37.58;19.41;99551.63;4353395;32;34332;-77
2022/08/05 11:21:32;;;;;;;9.05;3.75;;;;;;;37.80;19.17;99550.34;4357904;32;35019;-77
2022/08/05 11:24:35;;;;;;;4.53;4.00;;;;;;;37.93;20.58;99555.69;4348113;32;34038;-77
2022/08/05 11:27:30;;;;;;;6.60;3.67;;;;;;;37.91;18.37;99547.62;4369696;32;35925;-77
2022/08/05 11:30:55;;;;;;;5.47;3.70;;;;;;;38.10;17.70;99542.38;4355652;32;34472;-76
2022/08/05 11:33:50;;;;;;;6.07;3.70;;;;;;;38.84;17.29;99533.19;4354749;32;34263;-76
2022/08/05 11:36:50;;;;;;;6.78;3.62;;;;;;;38.09;17.95;99537.97;4357456;32;35578;-76
2022/08/05 11:39:49;;;;;;;5.80;3.70;;;;;;;38.61;17.83;99537.16;4357883;32;34968;-76
2022/08/05 11:42:48;;;;;;;3.90;3.47;;;;;;;39.06;18.23;99534.66;4349387;32;35615;-77
2022/08/05 11:45:46;;;;;;;4.00;3.40;;;;;;;38.97;17.63;99537.75;4358453;32;33880;-77
2022/08/05 11:48:53;;;;;;;5.62;3.72;;;;;;;39.16;16.79;99541.75;4356926;32;34630;-78
2022/08/05 11:51:42;;;;;;;4.85;3.67;;;;;;;38.54;16.77;99541.28;4340260;32;34889;-77
2022/08/05 11:54:36;;;;;;;7.57;3.45;;;;;;;38.50;18.99;99540.72;4347532;32;34440;-77
2022/08/05 11:57:29;;;;;;;5.50;3.58;;;;;;;38.86;17.73;99539.22;4349437;32;33713;-75
2022/08/05 12:00:35;;;;;;;5.72;3.83;;;;;;;39.18;17.09;99538.38;4355013;32;34190;-78
2022/08/05 12:03:24;;;;;;;4.90;3.78;;;;;;;39.03;17.03;99539.34;4351478;32;35065;-77
2022/08/05 12:06:19;;;;;;;5.05;3.65;;;;;;;39.33;17.13;99539.78;4357982;32;34571;-78
2022/08/05 12:09:06;;;;;;;5.15;3.60;;;;;;;38.16;17.24;99539.56;4356094;32;35289;-76
2022/08/05 12:11:53;;;;;;;5.28;4.07;;;;;;;39.22;17.53;99536.87;4354592;32;35540;-76
2022/08/05 12:14:41;;;;;;;4.85;3.47;;;;;;;39.45;17.63;99534.13;4352916;32;34787;-76
2022/08/05 12:17:34;;;;;;;7.10;3.70;;;;;;;39.86;16.84;99525.19;4348377;32;34689;-76
2022/08/05 12:20:41;;;;;;;5.68;3.90;;;;;;;40.05;16.64;99520.56;4355279;32;33734;-76
2022/08/05 12:23:26;;;;;;;3.80;3.20;;;;;;;39.37;17.87;99522.38;4357496;32;34287;-76
2022/08/05 12:26:14;;;;;;;3.95;3.55;;;;;;;39.63;17.21;99525.09;4356876;32;34514;-76
2022/08/05 12:29:23;;;;;;;7.82;3.37;;;;;;;39.63;16.51;99519.34;4356539;32;35770;-76
2022/08/05 12:32:11;;;;;;;4.10;3.70;;;;;;;39.86;18.00;99516.59;4357118;32;35538;-77
2022/08/05 12:34:57;;;;;;;5.62;3.70;;;;;;;39.23;16.17;99517.59;4346939;32;34203;-77
2022/08/05 12:37:49;;;;;;;7.95;3.65;;;;;;;39.27;17.11;99498.84;4334343;32;34514;-76
2022/08/05 12:40:40;;;;;;;5.47;3.42;;;;;;;39.62;17.90;99512.06;4357542;32;34610;-76
2022/08/05 12:43:29;;;;;;;6.70;3.62;;;;;;;40.10;16.18;99514.03;4354912;32;34765;-76
2022/08/05 12:46:25;;;;;;;5.75;3.58;;;;;;;39.89;16.21;99509.81;4355580;32;35630;-77
2022/08/05 12:49:14;;;;;;;6.90;3.42;;;;;;;39.96;16.44;99512.97;4356672;32;34596;-76
2022/08/05 12:52:19;;;;;;;23.70;5.13;;;;;;;40.26;16.29;99506.78;4356284;32;34730;-76
2022/08/05 12:55:19;;;;;;;4.87;3.40;;;;;;;40.27;16.80;99502.59;4365946;32;34259;-76
2022/08/05 12:58:22;;;;;;;13.52;5.03;;;;;;;40.77;15.89;99498.19;4356781;32;34677;-76
2022/08/05 13:01:28;;;;;;;4.90;3.35;;;;;;;39.49;16.83;99495.31;4357322;32;34975;-76
2022/08/05 13:04:37;;;;;;;10.30;4.00;;;;;;;39.08;17.14;99491.94;4354991;32;34386;-76
2022/08/05 13:07:39;;;;;;;16.17;4.28;;;;;;;39.33;17.46;99491.06;4358908;32;34212;-76
2022/08/05 13:10:45;;;;;;;9.02;4.20;;;;;;;38.17;16.86;99483.97;4349130;32;35646;-76
2022/08/05 13:13:38;;;;;;;10.50;3.70;;;;;;;39.02;16.97;99476.81;4356783;32;34616;-76
2022/08/05 13:16:46;;;;;;;7.28;3.65;;;;;;;39.50;16.56;99473.16;4359151;32;35203;-76
2022/08/05 13:19:32;;;;;;;4.47;3.47;;;;;;;39.15;17.24;99471.44;4357359;32;35135;-76
2022/08/05 13:22:39;;;;;;;5.10;3.60;;;;;;;39.47;16.22;99468.47;4357616;32;34616;-76
2022/08/05 13:25:28;;;;;;;;;;;;;;;39.72;16.72;99467.50;4358296;32;34894;-76
2022/08/05 13:28:34;;;;;;;9.30;3.40;;;;;;;40.15;15.47;99455.88;4358817;32;34622;-76
2022/08/05 13:31:29;;;;;;;4.10;3.42;;;;;;;40.72;15.51;99456.69;4358914;32;35036;-76
2022/08/05 13:34:35;;;;;;;6.30;3.10;;;;;;;40.68;16.62;99456.97;4355824;32;34764;-76
2022/08/05 13:37:25;;;;;;;8.50;3.33;;;;;;;40.92;15.16;99458.47;4357137;32;34564;-76
2022/08/05 13:40:19;;;;;;;6.93;3.22;;;;;;;41.22;15.83;99449.28;4359159;32;35059;-77
2022/08/05 13:43:26;;;;;;;3.58;3.22;;;;;;;41.00;16.02;99450.88;4358605;32;34051;-77
2022/08/05 13:46:33;;;;;;;7.40;4.07;;;;;;;41.18;14.55;99437.25;4349680;32;35575;-76
2022/08/05 13:49:36;;;;;;;5.87;3.55;;;;;;;42.02;14.00;99442.59;4349550;32;34895;-76
2022/08/05 13:52:31;;;;;;;9.15;4.25;;;;;;;41.81;14.20;99439.28;4356371;32;36105;-76